Terminal Aerodrome Forecast
Issued by NWS Sioux Falls, SD

Home | Current Version | Previous Version | Text Only | Print | Product List | Glossary On
Versions: 1 2 3 4 5 6 7 8 9 10 11 12 13 14 15 16 17 18 19 20 21 22 23 24 25 26 27 28 29 30 31 32 33 34 35 36 37 38 39 40 41 42 43 44
000
FTUS43 KFSD 250520
TAFSUX
TAF
KSUX 250520Z 2506/2606 24005KT P6SM VCSH SCT035 SCT070
     FM250700 30010KT P6SM SCT150
     FM251500 30011G25KT P6SM SCT035
     FM251700 31019G28KT P6SM BKN035
     FM260000 30012KT P6SM FEW250=

USA.gov is the U.S. government's official web portal to all federal, state and local government web resources and services.